createdAt,value
2022-09-01T00:01:43.318Z,101881.38
2022-09-01T00:04:13.463Z,101879.75
2022-09-01T00:06:40.971Z,101884.25
2022-09-01T00:09:17.015Z,101883.06
2022-09-01T00:11:50.570Z,101888.59
2022-09-01T00:14:30.651Z,101887.09
2022-09-01T00:17:04.446Z,101889.59
2022-09-01T00:19:33.273Z,101890.81
2022-09-01T00:22:00.434Z,101882.38
2022-09-01T00:24:27.594Z,101886.41
2022-09-01T00:26:56.105Z,101892.00
2022-09-01T00:29:24.890Z,101883.38
2022-09-01T00:31:52.413Z,101894.16
2022-09-01T00:34:19.888Z,101904.63
2022-09-01T00:36:48.064Z,101902.25
2022-09-01T00:39:15.742Z,101894.03
2022-09-01T00:41:44.117Z,101893.84
2022-09-01T00:44:22.135Z,101897.28
2022-09-01T00:46:55.556Z,101898.84
2022-09-01T00:49:27.963Z,101891.66
2022-09-01T00:51:58.806Z,101901.66
2022-09-01T00:54:30.709Z,101902.41
2022-09-01T00:56:58.474Z,101895.53
2022-09-01T00:59:27.500Z,101897.22
2022-09-01T01:01:55.075Z,101898.00
2022-09-01T01:04:22.124Z,101902.22
2022-09-01T01:06:58.843Z,101889.59
2022-09-01T01:09:27.801Z,101899.25
2022-09-01T01:11:55.127Z,101898.16
2022-09-01T01:14:21.845Z,101896.09
2022-09-01T01:16:52.160Z,101891.25
2022-09-01T01:19:44.015Z,101896.50
2022-09-01T01:22:37.890Z,101896.16
2022-09-01T01:25:04.864Z,101900.81
2022-09-01T01:27:33.666Z,101896.94
2022-09-01T01:30:11.758Z,101898.88
2022-09-01T01:32:43.117Z,101894.75
2022-09-01T01:35:14.890Z,101902.59
2022-09-01T01:37:49.056Z,101890.78
2022-09-01T01:40:20.357Z,101893.63
2022-09-01T01:42:49.467Z,101900.13
2022-09-01T01:45:19.523Z,101898.59
2022-09-01T01:47:53.401Z,101892.50
2022-09-01T01:50:26.168Z,101891.59
2022-09-01T01:52:58.274Z,101900.00
2022-09-01T01:55:28.771Z,101898.72
2022-09-01T01:57:59.127Z,101897.25
2022-09-01T02:00:32.267Z,101894.06
2022-09-01T02:02:59.559Z,101889.16
2022-09-01T02:05:32.354Z,101892.16
2022-09-01T02:08:04.768Z,101894.09
2022-09-01T02:10:34.775Z,101887.25
2022-09-01T02:13:06.003Z,101883.28
2022-09-01T02:15:44.220Z,101879.63
2022-09-01T02:18:14.358Z,101887.78
2022-09-01T02:20:41.935Z,101887.88
2022-09-01T02:23:10.905Z,101888.91
2022-09-01T02:25:58.958Z,101882.00
2022-09-01T02:28:32.158Z,101890.50
2022-09-01T02:30:59.820Z,101884.41
2022-09-01T02:33:28.452Z,101886.19
2022-09-01T02:35:58.757Z,101881.78
2022-09-01T02:38:28.111Z,101883.34
2022-09-01T02:40:59.550Z,101877.28
2022-09-01T02:43:28.350Z,101881.63
2022-09-01T02:45:59.673Z,101872.97
2022-09-01T02:48:35.815Z,101876.34
2022-09-01T02:51:06.454Z,101873.75
2022-09-01T02:53:34.870Z,101871.97
2022-09-01T02:56:12.133Z,101873.13
2022-09-01T02:58:45.679Z,101864.78
2022-09-01T03:01:24.802Z,101864.72
2022-09-01T03:03:55.674Z,101858.03
2022-09-01T03:06:24.495Z,101871.41
2022-09-01T03:08:59.628Z,101859.34
2022-09-01T03:11:29.754Z,101861.19
2022-09-01T03:13:57.099Z,101864.66
2022-09-01T03:16:23.883Z,101860.28
2022-09-01T03:18:51.879Z,101860.28
2022-09-01T03:21:20.672Z,101851.75
2022-09-01T03:23:48.721Z,101855.19
2022-09-01T03:26:19.348Z,101860.41
2022-09-01T03:28:46.657Z,101864.06
2022-09-01T03:31:14.190Z,101868.66
2022-09-01T03:33:42.185Z,101868.13
2022-09-01T03:36:19.372Z,101872.88
2022-09-01T03:38:48.801Z,101870.56
2022-09-01T03:41:19.918Z,101870.78
2022-09-01T03:43:48.866Z,101864.94
2022-09-01T03:46:23.016Z,101855.00
2022-09-01T03:48:52.805Z,101860.44
2022-09-01T03:51:22.566Z,101866.59
2022-09-01T03:53:54.848Z,101857.84
2022-09-01T03:56:24.604Z,101864.59
2022-09-01T03:58:52.869Z,101868.06
2022-09-01T04:01:22.787Z,101860.16
2022-09-01T04:03:51.215Z,101874.28
2022-09-01T04:06:24.049Z,101875.13
2022-09-01T04:09:00.814Z,101869.91
2022-09-01T04:11:28.049Z,101870.50
2022-09-01T04:13:54.697Z,101873.97
2022-09-01T04:16:48.100Z,101867.22
2022-09-01T04:19:20.469Z,101874.41
2022-09-01T04:21:53.670Z,101871.66
2022-09-01T04:24:24.176Z,101871.53
2022-09-01T04:26:53.180Z,101879.34
2022-09-01T04:29:27.533Z,101887.81
2022-09-01T04:32:03.613Z,101882.66
2022-09-01T04:34:38.193Z,101881.81
2022-09-01T04:37:22.023Z,101885.25
2022-09-01T04:39:57.829Z,101886.19
2022-09-01T04:42:29.110Z,101884.47
2022-09-01T04:45:02.029Z,101893.03
2022-09-01T04:47:41.879Z,101902.63
2022-09-01T04:50:14.973Z,101892.13
2022-09-01T04:53:06.296Z,101880.91
2022-09-01T04:55:43.529Z,101886.31
2022-09-01T04:58:17.457Z,101889.69
2022-09-01T05:00:48.214Z,101889.56
2022-09-01T05:03:21.564Z,101896.47
2022-09-01T05:05:54.493Z,101897.34
2022-09-01T05:08:24.333Z,101900.50
2022-09-01T05:10:55.762Z,101898.41
2022-09-01T05:13:46.311Z,101896.22
2022-09-01T05:16:22.782Z,101905.91
2022-09-01T05:18:54.214Z,101905.91
2022-09-01T05:21:24.658Z,101900.78
2022-09-01T05:23:51.858Z,101894.03
2022-09-01T05:26:23.375Z,101896.75
2022-09-01T05:28:55.519Z,101892.91
2022-09-01T05:31:24.228Z,101892.16
2022-09-01T05:33:51.769Z,101897.69
2022-09-01T05:36:21.570Z,101893.56
2022-09-01T05:38:52.267Z,101899.97
2022-09-01T05:41:20.966Z,101906.03
2022-09-01T05:43:55.175Z,101911.59
2022-09-01T05:46:28.140Z,101905.09
2022-09-01T05:48:57.405Z,101906.59
2022-09-01T05:51:43.872Z,101902.31
2022-09-01T05:54:12.140Z,101898.63
2022-09-01T05:56:43.519Z,101897.53
2022-09-01T05:59:23.068Z,101896.16
2022-09-01T06:01:53.216Z,101891.44
2022-09-01T06:04:21.055Z,101895.94
2022-09-01T06:07:05.635Z,101902.63
2022-09-01T06:09:39.963Z,101899.75
2022-09-01T06:12:09.233Z,101904.44
2022-09-01T06:14:35.931Z,101906.13
2022-09-01T06:17:03.508Z,101901.81
2022-09-01T06:19:36.926Z,101898.63
2022-09-01T06:22:04.871Z,101905.44
2022-09-01T06:24:31.994Z,101898.34
2022-09-01T06:26:59.706Z,101906.63
2022-09-01T06:29:26.780Z,101908.88
2022-09-01T06:31:53.397Z,101905.22
2022-09-01T06:34:20.579Z,101901.41
2022-09-01T06:36:49.546Z,101902.81
2022-09-01T06:39:19.867Z,101913.59
2022-09-01T06:41:53.109Z,101907.97
2022-09-01T06:44:24.610Z,101905.94
2022-09-01T06:47:00.271Z,101914.38
2022-09-01T06:49:33.106Z,101914.00
2022-09-01T06:52:01.254Z,101917.69
2022-09-01T06:54:29.859Z,101916.19
2022-09-01T06:56:57.556Z,101915.31
2022-09-01T06:59:34.693Z,101914.56
2022-09-01T07:02:04.904Z,101928.44
2022-09-01T07:05:04.858Z,101925.94
2022-09-01T07:13:38.752Z,101932.19
2022-09-01T07:18:58.798Z,101931.72
2022-09-01T07:22:06.724Z,101925.44
2022-09-01T07:24:18.196Z,101930.69
2022-09-01T07:27:11.086Z,101927.97
2022-09-01T07:29:39.326Z,101929.16
2022-09-01T07:34:55.690Z,101933.72
2022-09-01T07:43:33.711Z,101936.50
2022-09-01T07:49:49.194Z,101935.91
2022-09-01T07:52:04.379Z,101932.31
2022-09-01T07:54:33.947Z,101935.19
2022-09-01T07:57:01.801Z,101927.28
2022-09-01T07:59:31.096Z,101933.22
2022-09-01T08:02:19.080Z,101932.41
2022-09-01T08:04:48.950Z,101932.59
2022-09-01T08:07:16.904Z,101932.00
2022-09-01T08:09:44.558Z,101934.84
2022-09-01T08:12:13.375Z,101931.47
2022-09-01T08:14:46.676Z,101925.34
2022-09-01T08:17:18.375Z,101934.72
2022-09-01T08:20:09.950Z,101943.78
2022-09-01T08:22:58.893Z,101934.72
2022-09-01T08:25:31.031Z,101942.69
2022-09-01T08:28:00.139Z,101933.66
2022-09-01T08:30:28.336Z,101929.69
2022-09-01T08:32:55.178Z,101938.84
2022-09-01T08:35:22.805Z,101933.34
2022-09-01T08:37:49.509Z,101929.81
2022-09-01T08:40:20.726Z,101940.31
2022-09-01T08:42:47.995Z,101928.50
2022-09-01T08:45:20.971Z,101930.41
2022-09-01T08:48:15.388Z,101933.19
2022-09-01T08:50:38.195Z,101936.63
2022-09-01T08:54:27.657Z,101935.41
2022-09-01T08:57:26.352Z,101934.53
2022-09-01T09:00:16.060Z,101938.16
2022-09-01T09:03:08.621Z,101932.88
2022-09-01T09:06:04.012Z,101937.88
2022-09-01T09:08:52.854Z,101926.81
2022-09-01T09:11:31.258Z,101934.44
2022-09-01T09:14:26.374Z,101930.56
2022-09-01T09:16:54.777Z,101927.88
2022-09-01T09:19:32.028Z,101925.19
2022-09-01T09:22:01.109Z,101932.75
2022-09-01T09:24:50.602Z,101926.00
2022-09-01T09:27:26.924Z,101930.19
2022-09-01T09:29:57.120Z,101928.53
2022-09-01T09:33:11.692Z,101921.28
2022-09-01T09:35:31.680Z,101922.88
2022-09-01T09:38:28.525Z,101920.94
2022-09-01T09:44:01.159Z,101917.41
2022-09-01T09:46:27.863Z,101920.06
2022-09-01T09:49:12.781Z,101913.25
2022-09-01T09:51:42.081Z,101908.44
2022-09-01T09:54:28.377Z,101913.09
2022-09-01T09:57:06.902Z,101916.69
2022-09-01T09:59:58.687Z,101908.56
2022-09-01T10:02:33.197Z,101914.47
2022-09-01T10:05:21.728Z,101911.69
2022-09-01T10:07:49.355Z,101903.19
2022-09-01T10:10:40.672Z,101903.22
2022-09-01T10:13:17.661Z,101901.94
2022-09-01T10:15:53.213Z,101900.47
2022-09-01T10:18:29.388Z,101895.53
2022-09-01T10:21:24.098Z,101908.75
2022-09-01T10:23:50.780Z,101899.97
2022-09-01T10:26:27.754Z,101898.78
2022-09-01T10:29:20.897Z,101896.34
2022-09-01T10:31:47.662Z,101903.47
2022-09-01T10:34:21.466Z,101901.19
2022-09-01T10:36:56.809Z,101899.97
2022-09-01T10:39:28.315Z,101894.81
2022-09-01T10:42:04.561Z,101895.88
2022-09-01T10:44:57.759Z,101898.28
2022-09-01T10:47:37.846Z,101886.50
2022-09-01T10:50:35.430Z,101887.63
2022-09-01T10:53:05.394Z,101891.22
2022-09-01T10:55:45.307Z,101894.34
2022-09-01T11:04:59.437Z,101884.03
2022-09-01T11:07:50.209Z,101888.00
2022-09-01T11:10:35.415Z,101888.47
2022-09-01T11:13:16.445Z,101893.56
2022-09-01T11:15:45.593Z,101880.88
2022-09-01T11:18:27.376Z,101882.19
2022-09-01T11:20:56.313Z,101877.41
2022-09-01T11:23:27.783Z,101874.50
2022-09-01T11:26:35.490Z,101871.47
2022-09-01T11:29:02.464Z,101870.00
2022-09-01T11:31:31.100Z,101865.28
2022-09-01T11:34:17.632Z,101866.81
2022-09-01T11:36:48.300Z,101858.09
2022-09-01T11:39:18.128Z,101866.97
2022-09-01T11:42:04.982Z,101863.00
2022-09-01T11:44:51.198Z,101861.84
2022-09-01T11:47:29.577Z,101867.94
2022-09-01T11:50:05.768Z,101861.00
2022-09-01T11:52:35.927Z,101867.94
2022-09-01T11:55:07.202Z,101861.47
2022-09-01T11:57:35.304Z,101869.47
2022-09-01T12:00:08.010Z,101858.72
2022-09-01T12:02:45.755Z,101855.22
2022-09-01T12:05:32.113Z,101855.69
2022-09-01T12:08:02.136Z,101854.38
2022-09-01T12:10:38.361Z,101844.16
2022-09-01T12:13:10.913Z,101847.34
2022-09-01T12:16:06.996Z,101842.75
2022-09-01T12:18:35.118Z,101839.91
2022-09-01T12:21:04.540Z,101840.91
2022-09-01T12:23:43.031Z,101842.50
2022-09-01T12:26:18.130Z,101840.94
2022-09-01T12:28:46.063Z,101839.53
2022-09-01T12:31:17.062Z,101831.22
2022-09-01T12:33:44.660Z,101830.34
2022-09-01T12:36:15.242Z,101827.50
2022-09-01T12:38:42.011Z,101825.16
2022-09-01T12:41:38.963Z,101830.38
2022-09-01T12:44:30.334Z,101820.28
2022-09-01T12:47:01.696Z,101818.13
2022-09-01T12:49:50.721Z,101826.81
2022-09-01T12:52:25.947Z,101813.13
2022-09-01T12:54:58.818Z,101817.94
2022-09-01T12:57:29.878Z,101824.28
2022-09-01T13:00:12.387Z,101812.41
2022-09-01T13:03:05.279Z,101814.75
2022-09-01T13:05:42.361Z,101816.44
2022-09-01T13:08:12.686Z,101809.59
2022-09-01T13:10:48.347Z,101812.75
2022-09-01T13:13:16.038Z,101803.50
2022-09-01T13:15:48.127Z,101799.41
2022-09-01T13:18:19.288Z,101805.50
2022-09-01T13:20:46.239Z,101789.38
2022-09-01T13:23:13.093Z,101792.09
2022-09-01T13:25:40.585Z,101800.47
2022-09-01T13:28:09.082Z,101793.44
2022-09-01T13:30:35.820Z,101793.16
2022-09-01T13:33:28.405Z,101793.88
2022-09-01T13:35:50.393Z,101790.25
2022-09-01T13:38:18.152Z,101783.06
2022-09-01T13:40:47.265Z,101786.06
2022-09-01T13:43:15.338Z,101787.75
2022-09-01T13:45:43.198Z,101782.88
2022-09-01T13:49:01.740Z,101777.41
2022-09-01T13:51:16.513Z,101793.94
2022-09-01T13:53:45.286Z,101780.91
2022-09-01T13:56:15.047Z,101787.41
2022-09-01T13:58:42.453Z,101792.03
2022-09-01T14:01:09.162Z,101777.34
2022-09-01T14:03:35.810Z,101784.19
2022-09-01T14:06:02.601Z,101788.13
2022-09-01T14:08:30.776Z,101778.53
2022-09-01T14:10:57.405Z,101781.91
2022-09-01T14:13:25.090Z,101766.22
2022-09-01T14:15:53.342Z,101777.38
2022-09-01T14:18:22.217Z,101765.22
2022-09-01T14:20:50.974Z,101771.00
2022-09-01T14:23:19.187Z,101772.19
2022-09-01T14:25:51.082Z,101764.19
2022-09-01T14:28:20.620Z,101769.13
2022-09-01T14:30:48.323Z,101763.28
2022-09-01T14:33:15.169Z,101769.13
2022-09-01T14:35:46.450Z,101756.63
2022-09-01T14:38:14.735Z,101764.84
2022-09-01T14:40:43.429Z,101757.22
2022-09-01T14:43:14.081Z,101744.34
2022-09-01T14:45:44.541Z,101758.94
2022-09-01T14:48:11.352Z,101748.97
2022-09-01T14:50:41.538Z,101752.44
2022-09-01T14:53:08.951Z,101752.16
2022-09-01T14:55:35.751Z,101763.19
2022-09-01T14:58:02.870Z,101747.22
2022-09-01T15:00:31.774Z,101747.09
2022-09-01T15:02:58.761Z,101756.47
2022-09-01T15:05:25.579Z,101747.97
2022-09-01T15:07:54.465Z,101747.97
2022-09-01T15:10:25.687Z,101733.94
2022-09-01T15:13:00.378Z,101729.69
2022-09-01T15:15:28.845Z,101728.13
2022-09-01T15:17:56.418Z,101742.66
2022-09-01T15:20:42.438Z,101735.75
2022-09-01T15:23:09.377Z,101729.34
2022-09-01T15:25:36.343Z,101729.63
2022-09-01T15:28:07.789Z,101726.91
2022-09-01T15:30:35.372Z,101720.41
2022-09-01T15:33:02.037Z,101740.25
2022-09-01T15:35:29.968Z,101724.25
2022-09-01T15:37:59.985Z,101723.50
2022-09-01T15:40:27.393Z,101731.56
2022-09-01T15:42:55.664Z,101715.63
2022-09-01T15:45:31.729Z,101738.56
2022-09-01T15:48:00.314Z,101728.09
2022-09-01T15:50:27.996Z,101712.72
2022-09-01T15:53:03.721Z,101719.47
2022-09-01T15:55:38.082Z,101716.03
2022-09-01T15:58:04.703Z,101715.88
2022-09-01T16:00:34.743Z,101717.56
2022-09-01T16:03:02.433Z,101716.72
2022-09-01T16:05:31.015Z,101725.31
2022-09-01T16:07:57.902Z,101703.47
2022-09-01T16:10:24.808Z,101709.50
2022-09-01T16:12:52.558Z,101708.81
2022-09-01T16:15:22.208Z,101706.13
2022-09-01T16:17:52.482Z,101707.59
2022-09-01T16:20:25.545Z,101705.13
2022-09-01T16:22:56.810Z,101709.31
2022-09-01T16:25:32.962Z,101697.97
2022-09-01T16:28:10.370Z,101692.03
2022-09-01T16:30:37.798Z,101699.41
2022-09-01T16:33:19.780Z,101698.94
2022-09-01T16:36:24.117Z,101692.25
2022-09-01T16:38:57.891Z,101696.31
2022-09-01T16:41:45.255Z,101699.47
2022-09-01T16:44:22.734Z,101685.47
2022-09-01T16:47:07.234Z,101682.13
2022-09-01T16:50:04.075Z,101685.59
2022-09-01T16:52:44.165Z,101681.09
2022-09-01T16:55:41.501Z,101689.81
2022-09-01T16:58:23.316Z,101690.00
2022-09-01T17:01:02.091Z,101677.56
2022-09-01T17:03:43.961Z,101683.47
2022-09-01T17:06:22.798Z,101680.72
2022-09-01T17:08:52.641Z,101672.41
2022-09-01T17:11:34.831Z,101691.28
2022-09-01T17:14:03.138Z,101686.34
2022-09-01T17:16:37.020Z,101684.75
2022-09-01T17:19:08.534Z,101687.91
2022-09-01T17:21:41.653Z,101694.31
2022-09-01T17:24:17.481Z,101688.22
2022-09-01T17:26:47.722Z,101682.88
2022-09-01T17:29:14.846Z,101684.25
2022-09-01T17:31:50.398Z,101686.78
2022-09-01T17:34:54.797Z,101681.28
2022-09-01T17:37:29.127Z,101690.97
2022-09-01T17:40:08.562Z,101688.53
2022-09-01T17:43:18.168Z,101687.94
2022-09-01T17:46:08.104Z,101684.81
2022-09-01T17:48:53.805Z,101690.78
2022-09-01T17:51:34.368Z,101692.69
2022-09-01T17:54:16.881Z,101691.75
2022-09-01T17:56:58.428Z,101699.88
2022-09-01T17:59:38.946Z,101697.25
2022-09-01T18:02:24.554Z,101695.91
2022-09-01T18:05:03.113Z,101693.41
2022-09-01T18:07:48.925Z,101695.66
2022-09-01T18:10:23.156Z,101689.09
2022-09-01T18:12:56.070Z,101698.16
2022-09-01T18:15:24.198Z,101695.16
2022-09-01T18:18:00.180Z,101684.97
2022-09-01T18:20:36.385Z,101691.53
2022-09-01T18:23:14.165Z,101690.31
2022-09-01T18:25:42.338Z,101701.91
2022-09-01T18:28:09.726Z,101698.88
2022-09-01T18:30:53.274Z,101697.72
2022-09-01T18:33:54.936Z,101699.75
2022-09-01T18:36:21.550Z,101694.09
2022-09-01T18:38:58.089Z,101700.53
2022-09-01T18:41:45.983Z,101694.78
2022-09-01T18:44:47.245Z,101707.22
2022-09-01T18:47:16.162Z,101707.31
2022-09-01T18:50:10.684Z,101700.56
2022-09-01T18:52:42.884Z,101702.69
2022-09-01T18:55:15.227Z,101706.28
2022-09-01T18:57:45.681Z,101710.50
2022-09-01T19:00:30.783Z,101713.22
2022-09-01T19:03:20.341Z,101714.28
2022-09-01T19:06:05.295Z,101722.31
2022-09-01T19:08:40.815Z,101723.47
2022-09-01T19:11:22.634Z,101721.88
2022-09-01T19:13:53.266Z,101725.69
2022-09-01T19:16:22.882Z,101724.94
2022-09-01T19:19:01.958Z,101726.22
2022-09-01T19:21:32.269Z,101717.59
2022-09-01T19:24:04.360Z,101723.19
2022-09-01T19:26:37.941Z,101715.41
2022-09-01T19:29:12.763Z,101720.56
2022-09-01T19:31:44.690Z,101721.59
2022-09-01T19:34:18.630Z,101721.59
2022-09-01T19:36:47.308Z,101713.09
2022-09-01T19:39:25.100Z,101721.81
2022-09-01T19:41:57.349Z,101721.09
2022-09-01T19:44:33.197Z,101723.50
2022-09-01T19:47:05.065Z,101713.63
2022-09-01T19:49:46.796Z,101725.91
2022-09-01T19:52:33.446Z,101716.13
2022-09-01T19:55:14.007Z,101722.03
2022-09-01T19:58:03.334Z,101717.81
2022-09-01T20:00:50.808Z,101716.66
2022-09-01T20:03:21.153Z,101721.28
2022-09-01T20:05:50.433Z,101723.34
2022-09-01T20:08:23.750Z,101722.53
2022-09-01T20:11:01.334Z,101717.50
2022-09-01T20:13:33.412Z,101726.25
2022-09-01T20:16:09.350Z,101727.84
2022-09-01T20:18:51.969Z,101722.91
2022-09-01T20:21:21.546Z,101727.44
2022-09-01T20:23:57.675Z,101728.38
2022-09-01T20:26:37.257Z,101721.66
2022-09-01T20:29:45.469Z,101728.91
2022-09-01T20:32:20.324Z,101731.63
2022-09-01T20:34:53.009Z,101726.38
2022-09-01T20:37:33.725Z,101736.69
2022-09-01T20:40:17.478Z,101728.25
2022-09-01T20:43:22.043Z,101727.50
2022-09-01T20:45:49.393Z,101735.31
2022-09-01T20:48:26.226Z,101732.00
2022-09-01T20:51:01.411Z,101728.56
2022-09-01T20:54:06.630Z,101731.19
2022-09-01T20:57:05.814Z,101733.81
2022-09-01T20:59:47.343Z,101733.63
2022-09-01T21:02:20.816Z,101731.06
2022-09-01T21:04:59.473Z,101723.38
2022-09-01T21:07:35.847Z,101725.28
2022-09-01T21:10:21.068Z,101718.06
2022-09-01T21:13:25.232Z,101726.50
2022-09-01T21:16:03.319Z,101723.13
2022-09-01T21:18:51.493Z,101728.47
2022-09-01T21:22:04.445Z,101717.63
2022-09-01T21:24:31.440Z,101717.72
2022-09-01T21:27:01.129Z,101724.16
2022-09-01T21:29:36.474Z,101722.56
2022-09-01T21:32:06.250Z,101714.91
2022-09-01T21:34:32.962Z,101713.13
2022-09-01T21:37:07.019Z,101712.41
2022-09-01T21:39:33.673Z,101712.28
2022-09-01T21:42:00.535Z,101712.28
2022-09-01T21:44:28.759Z,101712.47
2022-09-01T21:46:56.630Z,101708.50
2022-09-01T21:49:23.313Z,101706.69
2022-09-01T21:51:54.161Z,101707.03
2022-09-01T21:54:21.552Z,101711.66
2022-09-01T21:56:53.266Z,101712.63
2022-09-01T21:59:20.557Z,101705.94
2022-09-01T22:01:47.874Z,101708.03
2022-09-01T22:04:18.344Z,101709.09
2022-09-01T22:06:45.788Z,101705.66
2022-09-01T22:09:20.601Z,101704.19
2022-09-01T22:11:50.043Z,101702.59
2022-09-01T22:14:17.494Z,101696.91
2022-09-01T22:16:44.570Z,101690.19
2022-09-01T22:19:11.249Z,101693.97
2022-09-01T22:21:39.690Z,101692.50
2022-09-01T22:24:06.502Z,101701.44
2022-09-01T22:26:34.289Z,101691.13
2022-09-01T22:29:03.929Z,101698.06
2022-09-01T22:31:32.233Z,101695.63
2022-09-01T22:34:00.148Z,101703.09
2022-09-01T22:36:30.030Z,101704.13
2022-09-01T22:39:00.921Z,101695.63
2022-09-01T22:41:30.252Z,101691.31
2022-09-01T22:43:59.878Z,101693.59
2022-09-01T22:46:28.418Z,101684.91
2022-09-01T22:48:56.630Z,101689.28
2022-09-01T22:51:23.701Z,101691.84
2022-09-01T22:53:53.581Z,101692.66
2022-09-01T22:56:32.484Z,101697.09
2022-09-01T22:59:05.670Z,101686.47
2022-09-01T23:01:42.384Z,101691.84
2022-09-01T23:04:13.557Z,101685.59
2022-09-01T23:06:49.091Z,101694.34
2022-09-01T23:09:19.861Z,101695.28
2022-09-01T23:11:49.365Z,101693.28
2022-09-01T23:14:20.897Z,101692.34
2022-09-01T23:16:54.797Z,101690.44
2022-09-01T23:19:23.096Z,101683.72
2022-09-01T23:21:51.145Z,101685.84
2022-09-01T23:24:22.241Z,101697.91
2022-09-01T23:26:49.633Z,101691.84
2022-09-01T23:29:20.196Z,101693.41
2022-09-01T23:31:49.064Z,101695.28
2022-09-01T23:34:16.201Z,101690.97
2022-09-01T23:36:45.306Z,101689.50
2022-09-01T23:39:12.364Z,101683.81
2022-09-01T23:41:41.435Z,101680.44
2022-09-01T23:44:09.960Z,101689.34
2022-09-01T23:46:43.669Z,101686.22
2022-09-01T23:49:15.237Z,101687.22
2022-09-01T23:51:42.141Z,101683.03
2022-09-01T23:54:09.454Z,101674.44
2022-09-01T23:56:37.659Z,101681.44
2022-09-01T23:59:04.577Z,101684.91
